createdAt,value
2018-06-15T00:00:52.463Z,98.40
2018-06-15T00:03:21.808Z,98.90
2018-06-15T00:05:50.954Z,99.00
2018-06-15T00:08:20.548Z,98.90
2018-06-15T00:10:49.616Z,99.30
2018-06-15T00:13:19.081Z,99.30
2018-06-15T00:15:48.598Z,99.30
2018-06-15T00:18:18.072Z,99.60
2018-06-15T00:20:47.799Z,99.90
2018-06-15T00:23:17.222Z,99.90
2018-06-15T00:25:46.849Z,99.90
2018-06-15T00:28:16.208Z,99.90
2018-06-15T00:30:45.815Z,99.40
2018-06-15T00:33:15.253Z,99.50
2018-06-15T00:35:44.657Z,99.40
2018-06-15T00:38:14.099Z,99.70
2018-06-15T00:40:43.517Z,99.70
2018-06-15T00:43:12.943Z,99.90
2018-06-15T00:45:42.667Z,99.90
2018-06-15T00:48:12.343Z,99.90
2018-06-15T00:50:41.657Z,99.90
2018-06-15T00:53:11.268Z,99.90
2018-06-15T00:55:41.006Z,99.90
2018-06-15T00:58:10.368Z,99.90
2018-06-15T01:00:39.988Z,99.90
2018-06-15T01:05:38.207Z,99.90
2018-06-15T01:08:07.613Z,99.90
2018-06-15T01:10:37.056Z,99.90
2018-06-15T01:13:06.518Z,99.90
2018-06-15T01:15:36.175Z,99.90
2018-06-15T01:18:05.237Z,99.90
2018-06-15T01:20:34.640Z,99.90
2018-06-15T01:23:04.562Z,99.90
2018-06-15T01:25:33.620Z,99.90
2018-06-15T01:28:02.969Z,99.90
2018-06-15T01:30:32.284Z,99.90
2018-06-15T01:35:30.647Z,99.90
2018-06-15T01:38:00.025Z,99.90
2018-06-15T01:40:29.425Z,99.90
2018-06-15T01:42:58.844Z,99.90
2018-06-15T01:45:28.182Z,99.90
2018-06-15T01:47:57.284Z,99.90
2018-06-15T01:50:26.381Z,99.90
2018-06-15T01:52:55.481Z,99.90
2018-06-15T01:55:24.855Z,99.90
2018-06-15T01:57:54.285Z,99.90
2018-06-15T02:00:23.756Z,99.90
2018-06-15T02:02:53.155Z,99.90
2018-06-15T02:05:22.492Z,99.90
2018-06-15T02:07:51.972Z,99.90
2018-06-15T02:10:21.789Z,99.90
2018-06-15T02:12:51.147Z,99.90
2018-06-15T02:15:20.500Z,99.90
2018-06-15T02:17:49.892Z,99.90
2018-06-15T02:20:19.236Z,99.90
2018-06-15T02:22:48.572Z,99.90
2018-06-15T02:25:17.946Z,99.90
2018-06-15T02:27:47.294Z,99.90
2018-06-15T02:30:16.688Z,99.90
2018-06-15T02:32:45.981Z,99.90
2018-06-15T02:35:15.362Z,99.90
2018-06-15T02:37:45.423Z,99.90
2018-06-15T02:40:15.061Z,99.90
2018-06-15T02:42:44.135Z,99.90
2018-06-15T02:45:13.807Z,99.90
2018-06-15T02:47:43.164Z,99.90
2018-06-15T02:50:12.318Z,99.90
2018-06-15T02:52:41.678Z,99.90
2018-06-15T02:55:11.113Z,99.90
2018-06-15T02:57:40.464Z,99.90
2018-06-15T03:00:09.854Z,99.90
2018-06-15T03:02:39.244Z,99.90
2018-06-15T03:05:08.641Z,99.90
2018-06-15T03:07:38.017Z,99.90
2018-06-15T03:10:07.643Z,99.90
2018-06-15T03:12:36.696Z,99.90
2018-06-15T03:15:06.915Z,99.90
2018-06-15T03:17:36.106Z,99.90
2018-06-15T03:20:05.792Z,99.90
2018-06-15T03:22:35.231Z,99.90
2018-06-15T03:25:04.666Z,99.90
2018-06-15T03:27:34.271Z,99.90
2018-06-15T03:30:03.599Z,99.90
2018-06-15T03:32:32.991Z,99.90
2018-06-15T03:35:02.492Z,99.90
2018-06-15T03:37:32.203Z,99.90
2018-06-15T03:40:01.802Z,99.90
2018-06-15T03:42:31.160Z,99.90
2018-06-15T03:45:00.601Z,99.90
2018-06-15T03:47:29.624Z,99.90
2018-06-15T03:49:59.058Z,99.90
2018-06-15T03:52:28.449Z,99.90
2018-06-15T03:54:57.857Z,99.90
2018-06-15T03:57:27.318Z,99.90
2018-06-15T03:59:56.724Z,99.90
2018-06-15T04:02:26.196Z,99.90
2018-06-15T04:04:55.535Z,99.90
2018-06-15T04:07:24.966Z,99.90
2018-06-15T04:09:54.321Z,99.90
2018-06-15T04:12:23.787Z,99.90
2018-06-15T04:14:53.177Z,99.90
2018-06-15T04:17:22.588Z,99.90
2018-06-15T04:19:52.049Z,99.90
2018-06-15T04:22:21.571Z,99.90
2018-06-15T04:24:50.872Z,99.90
2018-06-15T04:27:20.282Z,99.90
2018-06-15T04:29:49.732Z,99.90
2018-06-15T04:34:48.108Z,99.90
2018-06-15T04:37:17.569Z,99.90
2018-06-15T04:39:47.107Z,99.90
2018-06-15T04:42:16.496Z,99.90
2018-06-15T04:44:45.961Z,99.90
2018-06-15T04:47:15.724Z,99.90
2018-06-15T04:49:45.299Z,99.90
2018-06-15T04:52:14.641Z,99.90
2018-06-15T04:54:44.026Z,99.90
2018-06-15T04:57:13.447Z,99.90
2018-06-15T04:59:42.942Z,99.90
2018-06-15T05:02:12.311Z,99.90
2018-06-15T05:04:41.678Z,99.90
2018-06-15T05:09:40.645Z,99.90
2018-06-15T05:12:10.241Z,99.90
2018-06-15T05:14:39.705Z,99.90
2018-06-15T05:17:09.461Z,99.90
2018-06-15T05:19:38.767Z,99.90
2018-06-15T05:22:08.686Z,99.90
2018-06-15T05:24:38.251Z,99.90
2018-06-15T05:27:07.876Z,99.90
2018-06-15T05:29:37.183Z,99.90
2018-06-15T05:32:06.663Z,99.90
2018-06-15T05:34:36.066Z,99.90
2018-06-15T05:37:05.518Z,99.90
2018-06-15T05:39:34.932Z,99.90
2018-06-15T05:42:04.421Z,99.90
2018-06-15T05:44:33.885Z,99.90
2018-06-15T05:47:03.283Z,99.90
2018-06-15T05:49:34.475Z,99.90
2018-06-15T05:52:04.064Z,99.90
2018-06-15T05:54:33.478Z,99.90
2018-06-15T05:57:02.756Z,99.90
2018-06-15T05:59:32.201Z,99.90
2018-06-15T06:02:01.592Z,99.90
2018-06-15T06:04:31.184Z,99.90
2018-06-15T06:07:00.884Z,99.90
2018-06-15T06:09:30.210Z,99.90
2018-06-15T06:11:59.626Z,99.90
2018-06-15T06:14:29.021Z,99.90
2018-06-15T06:16:58.541Z,99.90
2018-06-15T06:19:27.938Z,99.90
2018-06-15T06:21:57.068Z,99.90
2018-06-15T06:24:26.140Z,99.90
2018-06-15T06:26:55.559Z,99.90
2018-06-15T06:29:25.098Z,99.90
2018-06-15T06:31:54.504Z,99.90
2018-06-15T06:34:23.984Z,99.90
2018-06-15T06:36:53.862Z,99.90
2018-06-15T06:39:23.029Z,99.90
2018-06-15T06:41:52.513Z,99.90
2018-06-15T06:44:21.877Z,99.90
2018-06-15T06:46:50.936Z,99.90
2018-06-15T06:49:20.366Z,99.90
2018-06-15T06:51:50.149Z,99.90
2018-06-15T06:54:19.899Z,99.90
2018-06-15T06:56:49.232Z,99.90
2018-06-15T06:59:18.595Z,99.90
2018-06-15T07:01:47.961Z,99.90
2018-06-15T07:04:17.369Z,99.90
2018-06-15T07:06:46.688Z,99.90
2018-06-15T07:09:16.268Z,99.90
2018-06-15T07:11:45.707Z,99.90
2018-06-15T07:14:15.094Z,99.90
2018-06-15T07:16:44.475Z,99.90
2018-06-15T07:19:13.796Z,99.90
2018-06-15T07:21:43.173Z,99.90
2018-06-15T07:24:12.682Z,99.90
2018-06-15T07:26:42.538Z,99.90
2018-06-15T07:29:11.925Z,99.90
2018-06-15T07:31:41.296Z,99.90
2018-06-15T07:34:10.678Z,99.90
2018-06-15T07:36:40.107Z,99.90
2018-06-15T07:41:39.809Z,99.90
2018-06-15T07:44:09.986Z,99.90
2018-06-15T07:46:39.420Z,99.90
2018-06-15T07:49:08.775Z,99.90
2018-06-15T07:51:38.181Z,99.90
2018-06-15T07:54:07.572Z,99.90
2018-06-15T07:56:36.952Z,99.90
2018-06-15T07:59:06.935Z,99.90
2018-06-15T08:01:36.359Z,99.90
2018-06-15T08:04:08.069Z,99.90
2018-06-15T08:06:37.450Z,99.90
2018-06-15T08:09:08.313Z,99.90
2018-06-15T08:11:37.880Z,99.90
2018-06-15T08:14:07.267Z,99.90
2018-06-15T08:16:36.670Z,99.90
2018-06-15T08:19:06.398Z,99.90
2018-06-15T08:21:35.952Z,99.90
2018-06-15T08:24:05.666Z,99.90
2018-06-15T08:26:35.101Z,99.90
2018-06-15T08:29:04.536Z,99.90
2018-06-15T08:34:02.959Z,99.90
2018-06-15T08:36:32.385Z,99.90
2018-06-15T08:39:02.068Z,99.90
2018-06-15T08:41:31.215Z,99.90
2018-06-15T08:44:00.600Z,99.90
2018-06-15T08:46:29.932Z,99.90
2018-06-15T08:48:59.300Z,99.90
2018-06-15T08:51:28.667Z,99.90
2018-06-15T08:53:57.959Z,99.90
2018-06-15T08:56:27.280Z,99.90
2018-06-15T08:58:56.639Z,99.90
2018-06-15T09:01:26.014Z,99.90
2018-06-15T09:03:55.883Z,99.90
2018-06-15T09:06:25.260Z,99.90
2018-06-15T09:08:54.688Z,99.90
2018-06-15T09:11:24.079Z,99.90
2018-06-15T09:13:53.495Z,99.90
2018-06-15T09:16:22.984Z,99.90
2018-06-15T09:18:52.315Z,99.90
2018-06-15T09:21:21.809Z,99.90
2018-06-15T09:23:51.119Z,99.90
2018-06-15T09:26:20.548Z,99.90
2018-06-15T09:28:49.933Z,99.90
2018-06-15T09:31:19.336Z,99.90
2018-06-15T09:33:48.763Z,99.90
2018-06-15T09:36:18.119Z,99.90
2018-06-15T09:38:47.502Z,99.90
2018-06-15T09:41:16.778Z,99.90
2018-06-15T09:43:46.146Z,99.90
2018-06-15T09:46:15.923Z,99.90
2018-06-15T09:48:45.505Z,99.90
2018-06-15T09:51:15.671Z,99.90
2018-06-15T09:53:45.054Z,99.90
2018-06-15T09:56:14.416Z,99.90
2018-06-15T09:58:43.848Z,99.90
2018-06-15T10:01:13.251Z,99.90
2018-06-15T10:03:42.585Z,99.90
2018-06-15T10:06:12.046Z,99.90
2018-06-15T10:08:41.637Z,99.90
2018-06-15T10:11:10.981Z,99.90
2018-06-15T10:13:40.420Z,98.90
2018-06-15T10:16:09.828Z,99.20
2018-06-15T10:18:39.174Z,99.90
2018-06-15T10:21:08.631Z,99.90
2018-06-15T10:23:37.983Z,99.90
2018-06-15T10:26:07.437Z,99.90
2018-06-15T10:28:36.771Z,99.90
2018-06-15T10:31:06.181Z,99.90
2018-06-15T10:33:35.495Z,99.90
2018-06-15T10:36:05.067Z,99.90
2018-06-15T10:38:34.750Z,99.90
2018-06-15T10:41:04.113Z,99.90
2018-06-15T10:43:33.574Z,99.30
2018-06-15T10:46:02.967Z,99.90
2018-06-15T10:48:32.359Z,99.90
2018-06-15T10:51:01.727Z,99.90
2018-06-15T10:53:31.381Z,99.90
2018-06-15T10:56:00.722Z,99.90
2018-06-15T10:58:30.226Z,99.90
2018-06-15T11:00:59.612Z,99.90
2018-06-15T11:03:28.956Z,99.90
2018-06-15T11:05:58.290Z,99.90
2018-06-15T11:08:27.694Z,99.00
2018-06-15T11:10:57.018Z,98.60
2018-06-15T11:13:26.377Z,99.90
2018-06-15T11:15:55.792Z,99.90
2018-06-15T11:18:25.159Z,99.90
2018-06-15T11:20:54.499Z,99.90
2018-06-15T11:23:23.920Z,99.90
2018-06-15T11:25:53.236Z,99.90
2018-06-15T11:28:22.592Z,99.90
2018-06-15T11:30:51.957Z,99.90
2018-06-15T11:33:21.310Z,99.90
2018-06-15T11:35:50.720Z,99.90
2018-06-15T11:38:20.678Z,99.10
2018-06-15T11:40:50.059Z,98.90
2018-06-15T11:43:19.464Z,98.20
2018-06-15T11:45:48.933Z,97.50
2018-06-15T11:48:18.334Z,96.90
2018-06-15T11:50:47.688Z,97.00
2018-06-15T11:53:17.120Z,97.00
2018-06-15T11:55:46.475Z,96.50
2018-06-15T11:58:15.833Z,96.00
2018-06-15T12:00:45.176Z,95.80
2018-06-15T12:03:14.786Z,96.50
2018-06-15T12:05:44.500Z,96.20
2018-06-15T12:08:13.847Z,96.90
2018-06-15T12:10:43.148Z,95.70
2018-06-15T12:13:12.504Z,95.00
2018-06-15T12:15:41.899Z,95.00
2018-06-15T12:18:11.340Z,95.30
2018-06-15T12:20:40.686Z,95.30
2018-06-15T12:23:10.069Z,94.60
2018-06-15T12:25:39.133Z,95.20
2018-06-15T12:28:08.553Z,95.40
2018-06-15T12:30:37.944Z,95.50
2018-06-15T12:33:07.303Z,96.20
2018-06-15T12:35:36.426Z,96.80
2018-06-15T12:38:05.807Z,97.40
2018-06-15T12:40:35.239Z,97.60
2018-06-15T12:43:04.655Z,97.60
2018-06-15T12:45:34.073Z,97.50
2018-06-15T12:48:03.531Z,97.70
2018-06-15T12:50:32.980Z,98.50
2018-06-15T12:53:02.369Z,98.20
2018-06-15T12:55:31.875Z,98.60
2018-06-15T12:58:01.328Z,98.50
2018-06-15T13:00:30.806Z,98.70
2018-06-15T13:03:00.170Z,98.10
2018-06-15T13:05:29.625Z,97.20
2018-06-15T13:07:59.033Z,97.50
2018-06-15T13:10:28.614Z,97.50
2018-06-15T13:12:58.021Z,97.10
2018-06-15T13:15:27.480Z,97.10
2018-06-15T13:17:57.072Z,96.40
2018-06-15T13:20:26.562Z,96.30
2018-06-15T13:22:56.015Z,95.60
2018-06-15T13:25:25.484Z,92.80
2018-06-15T13:27:55.004Z,90.40
2018-06-15T13:30:24.334Z,88.70
2018-06-15T13:32:53.759Z,85.70
2018-06-15T13:35:23.543Z,83.10
2018-06-15T13:37:53.483Z,76.70
2018-06-15T13:40:23.175Z,76.50
2018-06-15T13:42:52.571Z,73.60
2018-06-15T13:45:21.965Z,69.00
2018-06-15T13:47:51.352Z,60.00
2018-06-15T13:50:20.744Z,56.00
2018-06-15T13:52:50.166Z,56.50
2018-06-15T13:55:19.573Z,58.40
2018-06-15T13:57:49.802Z,60.20
2018-06-15T14:00:19.499Z,58.50
2018-06-15T14:02:48.659Z,59.40
2018-06-15T14:05:18.276Z,58.90
2018-06-15T14:07:47.708Z,57.30
2018-06-15T14:10:17.050Z,56.70
2018-06-15T14:12:46.509Z,58.40
2018-06-15T14:17:45.159Z,65.10
2018-06-15T14:20:14.575Z,68.10
2018-06-15T14:22:44.212Z,70.20
2018-06-15T14:25:13.721Z,72.60
2018-06-15T14:27:43.216Z,73.20
2018-06-15T14:30:12.591Z,74.70
2018-06-15T14:32:42.267Z,77.00
2018-06-15T14:35:11.928Z,79.40
2018-06-15T14:37:43.906Z,81.00
2018-06-15T14:40:15.567Z,80.50
2018-06-15T14:42:45.210Z,82.10
2018-06-15T14:45:15.101Z,84.30
2018-06-15T14:47:44.551Z,85.80
2018-06-15T14:50:13.948Z,87.20
2018-06-15T14:52:43.218Z,88.30
2018-06-15T14:55:12.762Z,89.40
2018-06-15T14:57:42.229Z,90.20
2018-06-15T15:00:11.882Z,90.50
2018-06-15T15:05:10.352Z,90.50
2018-06-15T15:07:40.028Z,90.90
2018-06-15T15:10:09.666Z,91.30
2018-06-15T15:12:39.215Z,90.90
2018-06-15T15:15:08.651Z,91.20
2018-06-15T15:17:38.131Z,90.90
2018-06-15T15:20:07.493Z,91.50
2018-06-15T15:22:36.950Z,91.60
2018-06-15T15:25:06.756Z,91.00
2018-06-15T15:27:37.053Z,91.40
2018-06-15T15:30:07.854Z,91.50
2018-06-15T15:32:37.416Z,92.40
2018-06-15T15:35:07.049Z,93.10
2018-06-15T15:37:36.448Z,92.60
2018-06-15T15:40:05.908Z,92.40
2018-06-15T15:42:35.639Z,92.20
2018-06-15T15:45:05.541Z,92.50
2018-06-15T15:47:35.065Z,92.60
2018-06-15T15:50:04.896Z,93.00
2018-06-15T15:52:35.051Z,92.90
2018-06-15T15:55:04.247Z,93.20
2018-06-15T15:57:33.715Z,93.80
2018-06-15T16:00:03.659Z,93.40
2018-06-15T16:02:32.890Z,93.10
2018-06-15T16:05:02.700Z,93.50
2018-06-15T16:07:32.308Z,93.30
2018-06-15T16:10:01.886Z,93.60
2018-06-15T16:12:31.666Z,93.70
2018-06-15T16:15:01.176Z,93.70
2018-06-15T16:17:32.604Z,93.70
2018-06-15T16:20:02.382Z,93.50
2018-06-15T16:22:31.886Z,93.80
2018-06-15T16:25:01.473Z,93.90
2018-06-15T16:27:31.630Z,93.60
2018-06-15T16:30:00.999Z,93.60
2018-06-15T16:32:30.101Z,94.00
2018-06-15T16:34:59.651Z,93.90
2018-06-15T16:37:29.243Z,93.90
2018-06-15T16:39:58.664Z,94.00
2018-06-15T16:42:28.219Z,94.00
2018-06-15T16:44:58.042Z,94.00
2018-06-15T16:47:27.664Z,94.10
2018-06-15T16:49:56.825Z,94.30
2018-06-15T16:52:26.341Z,94.40
2018-06-15T16:54:55.697Z,95.20
2018-06-15T16:57:25.661Z,95.30
2018-06-15T16:59:55.471Z,94.60
2018-06-15T17:02:25.305Z,95.00
2018-06-15T17:04:54.926Z,94.70
2018-06-15T17:07:24.809Z,95.00
2018-06-15T17:09:54.348Z,94.90
2018-06-15T17:12:24.133Z,95.20
2018-06-15T17:14:54.044Z,95.50
2018-06-15T17:17:23.546Z,95.40
2018-06-15T17:19:53.117Z,95.20
2018-06-15T17:22:22.293Z,95.00
2018-06-15T17:24:51.843Z,95.50
2018-06-15T17:27:21.695Z,95.30
2018-06-15T17:29:51.194Z,95.60
2018-06-15T17:32:20.925Z,95.60
2018-06-15T17:34:50.554Z,95.60
2018-06-15T17:37:20.509Z,95.80
2018-06-15T17:39:49.997Z,95.70
2018-06-15T17:42:19.560Z,95.60
2018-06-15T17:44:48.960Z,95.70
2018-06-15T17:47:18.555Z,95.50
2018-06-15T17:49:47.998Z,96.00
2018-06-15T17:52:17.460Z,95.60
2018-06-15T17:54:47.008Z,95.70
2018-06-15T17:57:16.945Z,95.80
2018-06-15T17:59:46.542Z,95.30
2018-06-15T18:02:16.081Z,95.70
2018-06-15T18:04:45.516Z,95.50
2018-06-15T18:07:15.894Z,96.20
2018-06-15T18:09:45.358Z,96.50
2018-06-15T18:12:15.195Z,96.30
2018-06-15T18:14:45.223Z,96.10
2018-06-15T18:17:14.938Z,96.20
2018-06-15T18:19:44.476Z,96.50
2018-06-15T18:22:13.877Z,96.40
2018-06-15T18:24:43.616Z,96.20
2018-06-15T18:27:12.976Z,96.50
2018-06-15T18:29:42.427Z,96.40
2018-06-15T18:32:11.950Z,96.00
2018-06-15T18:34:41.667Z,95.70
2018-06-15T18:39:40.116Z,96.30
2018-06-15T18:42:09.858Z,97.10
2018-06-15T18:44:39.422Z,96.80
2018-06-15T18:47:08.756Z,96.90
2018-06-15T18:49:38.229Z,96.80
2018-06-15T18:52:07.803Z,96.80
2018-06-15T18:54:37.385Z,96.50
2018-06-15T18:57:06.941Z,96.60
2018-06-15T18:59:37.338Z,96.80
2018-06-15T19:02:06.833Z,97.00
2018-06-15T19:04:36.329Z,97.80
2018-06-15T19:07:06.342Z,97.40
2018-06-15T19:09:35.868Z,97.70
2018-06-15T19:12:05.751Z,97.90
2018-06-15T19:14:35.265Z,97.90
2018-06-15T19:17:05.038Z,97.90
2018-06-15T19:19:34.429Z,98.10
2018-06-15T19:22:03.888Z,97.70
2018-06-15T19:24:33.295Z,97.40
2018-06-15T19:27:02.823Z,97.80
2018-06-15T19:29:32.290Z,98.20
2018-06-15T19:32:01.804Z,98.70
2018-06-15T19:34:31.217Z,98.90
2018-06-15T19:37:01.080Z,98.70
2018-06-15T19:39:30.484Z,98.90
2018-06-15T19:42:00.180Z,99.00
2018-06-15T19:44:29.852Z,99.30
2018-06-15T19:46:59.482Z,99.50
2018-06-15T19:49:29.199Z,99.80
2018-06-15T19:51:58.921Z,99.90
2018-06-15T19:54:28.355Z,99.90
2018-06-15T19:56:57.881Z,99.90
2018-06-15T19:59:27.303Z,99.90
2018-06-15T20:01:56.793Z,99.90
2018-06-15T20:04:26.331Z,99.90
2018-06-15T20:06:55.865Z,99.90
2018-06-15T20:09:25.679Z,99.90
2018-06-15T20:11:55.223Z,99.90
2018-06-15T20:14:24.644Z,99.90
2018-06-15T20:16:54.201Z,99.90
2018-06-15T20:19:23.624Z,99.90
2018-06-15T20:21:53.190Z,99.90
2018-06-15T20:24:22.576Z,99.90
2018-06-15T20:26:52.450Z,99.90
2018-06-15T20:29:21.825Z,99.90
2018-06-15T20:31:50.944Z,99.90
2018-06-15T20:34:20.280Z,99.90
2018-06-15T20:36:49.644Z,99.90
2018-06-15T20:39:19.017Z,99.90
2018-06-15T20:41:48.211Z,99.90
2018-06-15T20:46:46.861Z,99.90
2018-06-15T20:49:16.200Z,99.90
2018-06-15T20:51:45.551Z,99.90
2018-06-15T20:54:15.020Z,99.90
2018-06-15T20:56:44.818Z,99.90
2018-06-15T20:59:14.235Z,99.90
2018-06-15T21:01:43.561Z,99.90
2018-06-15T21:04:12.948Z,99.90
2018-06-15T21:06:42.388Z,99.90
2018-06-15T21:09:11.793Z,99.90
2018-06-15T21:11:41.396Z,99.90
2018-06-15T21:14:10.784Z,99.90
2018-06-15T21:16:40.132Z,99.90
2018-06-15T21:21:38.549Z,99.90
2018-06-15T21:24:07.838Z,99.90
2018-06-15T21:26:37.268Z,99.90
2018-06-15T21:29:06.702Z,99.90
2018-06-15T21:31:35.794Z,99.90
2018-06-15T21:34:06.141Z,99.90
2018-06-15T21:36:35.438Z,99.90
2018-06-15T21:39:07.611Z,99.90
2018-06-15T21:41:37.061Z,99.90
2018-06-15T21:44:06.499Z,99.90
2018-06-15T21:46:35.913Z,99.90
2018-06-15T21:49:05.287Z,99.90
2018-06-15T21:51:34.826Z,99.90
2018-06-15T21:54:04.205Z,99.90
2018-06-15T21:56:33.681Z,99.90
2018-06-15T21:59:03.095Z,99.90
2018-06-15T22:01:32.560Z,99.90
2018-06-15T22:04:01.640Z,99.90
2018-06-15T22:06:30.771Z,99.90
2018-06-15T22:09:00.208Z,99.90
2018-06-15T22:11:29.653Z,99.90
2018-06-15T22:13:59.042Z,99.90
2018-06-15T22:16:32.684Z,99.90
2018-06-15T22:19:01.754Z,99.90
2018-06-15T22:21:30.811Z,99.90
2018-06-15T22:24:00.296Z,99.90
2018-06-15T22:26:29.602Z,99.90
2018-06-15T22:28:59.179Z,99.90
2018-06-15T22:31:28.583Z,99.90
2018-06-15T22:33:57.910Z,99.90
2018-06-15T22:36:27.315Z,99.90
2018-06-15T22:38:56.609Z,99.90
2018-06-15T22:41:25.970Z,99.90
2018-06-15T22:43:55.664Z,99.90
2018-06-15T22:46:25.273Z,99.90
2018-06-15T22:48:54.596Z,99.90
2018-06-15T22:51:23.970Z,99.90
2018-06-15T22:53:53.342Z,99.90
2018-06-15T22:56:22.706Z,99.90
2018-06-15T22:58:52.068Z,99.90
2018-06-15T23:01:21.481Z,99.90
2018-06-15T23:03:50.802Z,99.90
2018-06-15T23:06:20.650Z,99.90
2018-06-15T23:08:50.092Z,99.90
2018-06-15T23:11:19.513Z,99.90
2018-06-15T23:13:49.242Z,99.90
2018-06-15T23:16:18.698Z,99.90
2018-06-15T23:18:48.247Z,99.90
2018-06-15T23:21:17.922Z,99.90
2018-06-15T23:23:47.646Z,99.90
2018-06-15T23:26:17.249Z,99.90
2018-06-15T23:28:46.964Z,99.90
2018-06-15T23:31:16.584Z,99.90
2018-06-15T23:33:45.871Z,99.90
2018-06-15T23:36:15.428Z,99.90
2018-06-15T23:38:45.146Z,99.90
2018-06-15T23:41:14.510Z,99.90
2018-06-15T23:43:43.766Z,99.90
2018-06-15T23:46:13.226Z,99.90
2018-06-15T23:48:42.889Z,99.90
2018-06-15T23:51:12.687Z,99.90
2018-06-15T23:53:42.593Z,99.90
2018-06-15T23:56:11.929Z,99.90
2018-06-15T23:58:41.509Z,99.90
